createdAt,value
2019-06-15T00:03:09.379Z,16.32
2019-06-15T00:06:24.963Z,16.25
2019-06-15T00:09:40.303Z,16.17
2019-06-15T00:12:55.569Z,16.11
2019-06-15T00:16:10.906Z,16.09
2019-06-15T00:19:26.632Z,16.06
2019-06-15T00:22:42.109Z,16.05
2019-06-15T00:25:57.853Z,16.00
2019-06-15T00:29:13.456Z,15.96
2019-06-15T00:32:28.582Z,15.95
2019-06-15T00:35:44.033Z,15.91
2019-06-15T00:38:59.899Z,15.85
2019-06-15T00:42:15.383Z,15.76
2019-06-15T00:45:30.501Z,15.72
2019-06-15T00:48:45.744Z,15.73
2019-06-15T00:52:01.440Z,15.70
2019-06-15T00:55:17.784Z,15.67
2019-06-15T00:58:32.885Z,15.63
2019-06-15T01:01:48.390Z,15.61
2019-06-15T01:05:03.631Z,15.61
2019-06-15T01:08:19.207Z,15.61
2019-06-15T01:11:34.349Z,15.58
2019-06-15T01:14:50.052Z,15.54
2019-06-15T01:18:05.411Z,15.49
2019-06-15T01:21:20.794Z,15.45
2019-06-15T01:24:36.374Z,15.45
2019-06-15T01:27:51.616Z,15.47
2019-06-15T01:31:06.998Z,15.47
2019-06-15T01:34:22.001Z,15.47
2019-06-15T01:37:38.070Z,15.47
2019-06-15T01:40:53.300Z,15.49
2019-06-15T01:44:09.509Z,15.49
2019-06-15T01:47:25.879Z,15.48
2019-06-15T01:50:42.165Z,15.46
2019-06-15T01:53:57.647Z,15.43
2019-06-15T01:57:12.771Z,15.39
2019-06-15T02:00:30.782Z,15.39
2019-06-15T02:03:46.130Z,15.40
2019-06-15T02:07:01.483Z,15.36
2019-06-15T02:10:16.953Z,15.33
2019-06-15T02:13:32.219Z,15.28
2019-06-15T02:16:46.979Z,15.22
2019-06-15T02:20:02.823Z,15.25
2019-06-15T02:23:19.500Z,15.22
2019-06-15T02:26:54.063Z,15.19
2019-06-15T02:30:09.198Z,15.17
2019-06-15T02:33:25.395Z,15.13
2019-06-15T02:36:40.754Z,15.13
2019-06-15T02:39:55.993Z,15.16
2019-06-15T02:43:11.242Z,15.18
2019-06-15T02:46:27.413Z,15.20
2019-06-15T02:49:42.673Z,15.20
2019-06-15T02:53:17.929Z,15.19
2019-06-15T02:56:33.794Z,15.17
2019-06-15T02:59:51.898Z,15.14
2019-06-15T03:03:07.274Z,15.14
2019-06-15T03:06:22.300Z,15.14
2019-06-15T03:09:37.377Z,15.13
2019-06-15T03:12:53.938Z,15.10
2019-06-15T03:16:09.446Z,15.08
2019-06-15T03:19:24.912Z,15.03
2019-06-15T03:22:40.022Z,14.99
2019-06-15T03:26:05.130Z,14.96
2019-06-15T03:29:12.686Z,14.93
2019-06-15T03:32:27.688Z,14.92
2019-06-15T03:35:43.995Z,14.90
2019-06-15T03:38:59.373Z,14.86
2019-06-15T03:42:14.740Z,14.84
2019-06-15T03:45:30.233Z,14.80
2019-06-15T03:48:45.574Z,14.85
2019-06-15T03:52:01.053Z,14.99
2019-06-15T03:55:16.900Z,15.08
2019-06-15T03:58:32.851Z,15.08
2019-06-15T04:01:49.897Z,15.07
2019-06-15T04:05:05.118Z,15.12
2019-06-15T04:08:20.480Z,15.19
2019-06-15T04:11:35.641Z,15.21
2019-06-15T04:14:51.107Z,15.33
2019-06-15T04:18:06.225Z,15.36
2019-06-15T04:21:22.046Z,15.47
2019-06-15T04:24:37.299Z,15.62
2019-06-15T04:27:52.898Z,15.75
2019-06-15T04:31:07.888Z,15.87
2019-06-15T04:34:23.134Z,15.97
2019-06-15T04:37:38.492Z,16.03
2019-06-15T04:40:53.655Z,16.14
2019-06-15T04:44:09.573Z,16.31
2019-06-15T04:47:26.375Z,16.45
2019-06-15T04:50:41.756Z,16.60
2019-06-15T04:53:56.857Z,16.73
2019-06-15T04:57:12.240Z,16.89
2019-06-15T05:00:27.487Z,16.95
2019-06-15T05:03:43.085Z,16.98
2019-06-15T05:06:58.205Z,17.03
2019-06-15T05:10:13.207Z,17.13
2019-06-15T05:16:46.090Z,17.17
2019-06-15T05:20:01.581Z,17.19
2019-06-15T05:23:17.629Z,17.26
2019-06-15T05:26:33.739Z,17.31
2019-06-15T05:29:49.815Z,17.29
2019-06-15T05:33:04.853Z,17.35
2019-06-15T05:36:21.115Z,17.54
2019-06-15T05:39:36.741Z,17.75
2019-06-15T05:42:51.839Z,17.91
2019-06-15T05:46:07.340Z,17.94
2019-06-15T05:49:22.586Z,18.03
2019-06-15T05:52:37.708Z,18.18
2019-06-15T05:55:53.545Z,18.37
2019-06-15T05:59:09.028Z,18.51
2019-06-15T06:02:25.001Z,18.63
2019-06-15T06:05:41.412Z,18.69
2019-06-15T06:08:57.540Z,18.80
2019-06-15T06:12:13.625Z,18.89
2019-06-15T06:15:29.535Z,18.91
2019-06-15T06:18:45.015Z,18.99
2019-06-15T06:22:00.400Z,19.14
2019-06-15T06:25:15.617Z,19.18
2019-06-15T06:28:31.243Z,19.36
2019-06-15T06:31:46.609Z,19.39
2019-06-15T06:35:02.541Z,19.41
2019-06-15T06:38:17.923Z,19.34
2019-06-15T06:41:33.645Z,19.21
2019-06-15T06:44:48.765Z,19.17
2019-06-15T06:48:03.866Z,19.16
2019-06-15T06:51:20.428Z,19.30
2019-06-15T06:54:38.624Z,19.33
2019-06-15T06:57:57.125Z,19.44
2019-06-15T07:01:11.432Z,19.47
2019-06-15T07:04:27.036Z,19.54
2019-06-15T07:07:43.376Z,19.66
2019-06-15T07:10:58.742Z,19.73
2019-06-15T07:14:15.058Z,19.99
2019-06-15T07:17:29.700Z,20.05
2019-06-15T07:20:46.600Z,20.13
2019-06-15T07:24:03.257Z,20.04
2019-06-15T07:27:19.882Z,19.97
2019-06-15T07:30:35.110Z,19.87
2019-06-15T07:33:50.705Z,19.78
2019-06-15T07:37:07.247Z,19.63
2019-06-15T07:40:22.248Z,19.61
2019-06-15T07:43:40.370Z,19.58
2019-06-15T07:46:56.607Z,19.46
2019-06-15T07:50:12.106Z,19.48
2019-06-15T07:53:28.522Z,19.44
2019-06-15T07:56:43.802Z,19.49
2019-06-15T07:59:59.493Z,19.60
2019-06-15T08:03:15.278Z,19.95
2019-06-15T08:06:30.661Z,20.38
2019-06-15T08:09:45.927Z,20.53
2019-06-15T08:13:01.266Z,20.71
2019-06-15T08:16:16.647Z,20.97
2019-06-15T08:19:31.985Z,21.28
2019-06-15T08:22:47.727Z,21.23
2019-06-15T08:26:03.210Z,21.31
2019-06-15T08:29:21.481Z,21.48
2019-06-15T08:32:39.486Z,21.67
2019-06-15T08:35:55.536Z,21.84
2019-06-15T08:39:10.896Z,21.83
2019-06-15T08:42:26.261Z,21.78
2019-06-15T08:45:41.358Z,21.88
2019-06-15T08:48:56.740Z,22.15
2019-06-15T08:52:12.102Z,21.85
2019-06-15T08:55:27.342Z,21.60
2019-06-15T08:58:55.098Z,21.78
2019-06-15T09:02:01.561Z,21.89
2019-06-15T09:05:16.808Z,21.89
2019-06-15T09:08:33.228Z,21.63
2019-06-15T09:11:48.469Z,21.47
2019-06-15T09:15:03.710Z,21.54
2019-06-15T09:18:18.956Z,21.54
2019-06-15T09:21:36.130Z,21.53
2019-06-15T09:24:51.505Z,21.79
2019-06-15T09:28:06.979Z,21.92
2019-06-15T09:31:22.570Z,22.12
2019-06-15T09:34:38.050Z,22.19
2019-06-15T09:37:53.650Z,22.16
2019-06-15T09:41:09.012Z,22.16
2019-06-15T09:44:27.875Z,22.26
2019-06-15T09:47:46.449Z,22.41
2019-06-15T09:51:01.580Z,22.44
2019-06-15T09:54:16.955Z,22.40
2019-06-15T09:57:35.300Z,22.50
2019-06-15T10:00:55.124Z,22.72
2019-06-15T10:04:10.588Z,22.68
2019-06-15T10:07:25.954Z,22.37
2019-06-15T10:10:41.678Z,22.18
2019-06-15T10:13:57.140Z,21.97
2019-06-15T10:17:12.265Z,22.16
2019-06-15T10:20:27.520Z,22.27
2019-06-15T10:23:42.746Z,22.39
2019-06-15T10:26:58.309Z,22.39
2019-06-15T10:30:13.958Z,22.44
2019-06-15T10:33:29.804Z,22.46
2019-06-15T10:36:45.404Z,22.69
2019-06-15T10:40:00.767Z,23.19
2019-06-15T10:43:15.895Z,23.21
2019-06-15T10:46:32.087Z,23.42
2019-06-15T10:49:48.860Z,23.88
2019-06-15T10:53:04.248Z,23.58
2019-06-15T10:56:19.818Z,24.00
2019-06-15T10:59:35.326Z,24.51
2019-06-15T11:02:50.659Z,23.79
2019-06-15T11:06:05.944Z,23.57
2019-06-15T11:09:22.102Z,23.71
2019-06-15T11:12:45.679Z,23.74
2019-06-15T11:15:54.888Z,23.62
2019-06-15T11:19:10.793Z,23.81
2019-06-15T11:22:26.003Z,23.96
2019-06-15T11:25:42.318Z,23.88
2019-06-15T11:28:57.532Z,23.82
2019-06-15T11:32:14.817Z,23.70
2019-06-15T11:35:30.037Z,23.55
2019-06-15T11:38:45.302Z,23.24
2019-06-15T11:42:00.780Z,23.39
2019-06-15T11:45:16.482Z,23.51
2019-06-15T11:48:31.651Z,23.61
2019-06-15T11:51:47.921Z,23.42
2019-06-15T11:55:03.308Z,23.65
2019-06-15T11:58:18.919Z,23.79
2019-06-15T12:01:34.258Z,24.02
2019-06-15T12:04:58.006Z,24.24
2019-06-15T12:08:06.685Z,24.20
2019-06-15T12:11:22.396Z,24.20
2019-06-15T12:16:45.562Z,24.25
2019-06-15T12:20:00.917Z,24.22
2019-06-15T12:23:17.513Z,24.26
2019-06-15T12:26:32.840Z,24.44
2019-06-15T12:29:48.567Z,24.67
2019-06-15T12:33:03.935Z,24.80
2019-06-15T12:36:20.028Z,24.93
2019-06-15T12:39:41.376Z,24.73
2019-06-15T12:42:53.377Z,24.83
2019-06-15T12:46:09.360Z,24.90
2019-06-15T12:49:25.294Z,24.79
2019-06-15T12:52:41.255Z,24.42
2019-06-15T12:55:56.627Z,24.53
2019-06-15T12:59:11.744Z,24.49
2019-06-15T13:02:28.078Z,24.60
2019-06-15T13:05:43.554Z,24.87
2019-06-15T13:08:59.987Z,24.84
2019-06-15T13:12:15.680Z,25.07
2019-06-15T13:15:30.920Z,25.32
2019-06-15T13:18:46.672Z,25.29
2019-06-15T13:22:06.303Z,25.28
2019-06-15T13:25:22.535Z,25.42
2019-06-15T13:28:38.854Z,25.33
2019-06-15T13:31:55.791Z,25.19
2019-06-15T13:35:10.896Z,25.12
2019-06-15T13:38:27.131Z,25.02
2019-06-15T13:41:43.184Z,25.21
2019-06-15T13:45:17.528Z,25.15
2019-06-15T13:48:33.366Z,25.04
2019-06-15T13:51:48.698Z,25.26
2019-06-15T13:55:03.981Z,25.49
2019-06-15T13:58:22.090Z,25.54
2019-06-15T14:01:37.191Z,25.31
2019-06-15T14:04:52.568Z,24.98
2019-06-15T14:08:08.552Z,24.98
2019-06-15T14:11:23.530Z,25.27
2019-06-15T14:14:38.653Z,25.49
2019-06-15T14:17:54.017Z,25.49
2019-06-15T14:21:09.258Z,25.34
2019-06-15T14:24:24.628Z,25.18
2019-06-15T14:27:39.736Z,25.25
2019-06-15T14:30:55.350Z,25.50
2019-06-15T14:34:10.938Z,25.59
2019-06-15T14:37:26.192Z,25.59
2019-06-15T14:40:42.002Z,25.67
2019-06-15T14:43:57.743Z,25.55
2019-06-15T14:47:13.362Z,25.69
2019-06-15T14:50:29.166Z,25.68
2019-06-15T14:53:49.848Z,25.59
2019-06-15T14:57:01.954Z,25.57
2019-06-15T15:00:17.076Z,25.53
2019-06-15T15:03:32.196Z,25.71
2019-06-15T15:06:47.433Z,26.03
2019-06-15T15:10:02.536Z,26.23
2019-06-15T15:13:17.779Z,26.01
2019-06-15T15:16:33.043Z,25.81
2019-06-15T15:20:09.884Z,25.53
2019-06-15T15:23:24.884Z,25.27
2019-06-15T15:26:40.254Z,25.05
2019-06-15T15:29:59.191Z,24.93
2019-06-15T15:33:17.546Z,24.80
2019-06-15T15:36:36.906Z,24.73
2019-06-15T15:39:52.378Z,24.70
2019-06-15T15:43:07.610Z,24.93
2019-06-15T15:46:22.868Z,25.57
2019-06-15T15:49:38.335Z,26.18
2019-06-15T15:52:53.702Z,26.53
2019-06-15T15:56:09.515Z,26.76
2019-06-15T15:59:25.613Z,26.92
2019-06-15T16:02:52.158Z,27.19
2019-06-15T16:05:58.725Z,27.26
2019-06-15T16:09:16.651Z,27.10
2019-06-15T16:12:32.955Z,27.15
2019-06-15T16:15:48.934Z,27.15
2019-06-15T16:19:06.330Z,27.32
2019-06-15T16:22:22.519Z,27.20
2019-06-15T16:25:37.880Z,26.65
2019-06-15T16:28:53.213Z,26.68
2019-06-15T16:32:08.692Z,26.87
2019-06-15T16:35:23.937Z,27.11
2019-06-15T16:38:39.176Z,27.14
2019-06-15T16:41:56.166Z,26.90
2019-06-15T16:45:12.081Z,27.13
2019-06-15T16:48:27.182Z,27.28
2019-06-15T16:51:46.660Z,27.15
2019-06-15T16:55:02.225Z,27.15
2019-06-15T16:58:17.730Z,27.24
2019-06-15T17:01:32.973Z,27.44
2019-06-15T17:04:48.340Z,27.47
2019-06-15T17:08:03.573Z,27.47
2019-06-15T17:11:18.936Z,27.24
2019-06-15T17:14:36.476Z,26.90
2019-06-15T17:17:51.720Z,26.66
2019-06-15T17:21:07.288Z,26.49
2019-06-15T17:24:26.423Z,26.31
2019-06-15T17:27:40.898Z,26.08
2019-06-15T17:30:56.808Z,25.80
2019-06-15T17:34:12.111Z,25.61
2019-06-15T17:37:27.238Z,25.45
2019-06-15T17:40:42.587Z,25.29
2019-06-15T17:43:57.951Z,25.11
2019-06-15T17:47:12.959Z,24.95
2019-06-15T17:50:33.248Z,24.78
2019-06-15T17:53:48.602Z,24.73
2019-06-15T17:57:04.075Z,24.85
2019-06-15T18:00:19.534Z,25.00
2019-06-15T18:03:49.747Z,25.06
2019-06-15T18:06:52.230Z,24.96
2019-06-15T18:10:07.562Z,24.82
2019-06-15T18:13:23.898Z,24.71
2019-06-15T18:16:40.084Z,24.57
2019-06-15T18:19:55.559Z,24.42
2019-06-15T18:23:11.171Z,24.23
2019-06-15T18:26:26.877Z,24.08
2019-06-15T18:29:42.623Z,24.01
2019-06-15T18:32:58.262Z,23.86
2019-06-15T18:36:13.219Z,23.62
2019-06-15T18:39:28.814Z,23.40
2019-06-15T18:42:46.378Z,23.09
2019-06-15T18:46:02.901Z,22.83
2019-06-15T18:49:17.974Z,22.60
2019-06-15T18:52:33.860Z,22.51
2019-06-15T18:55:50.429Z,22.43
2019-06-15T18:59:07.362Z,22.33
2019-06-15T19:02:22.945Z,22.10
2019-06-15T19:05:38.304Z,21.94
2019-06-15T19:08:53.672Z,21.83
2019-06-15T19:12:09.149Z,21.73
2019-06-15T19:15:24.276Z,21.48
2019-06-15T19:18:40.331Z,21.22
2019-06-15T19:21:57.145Z,21.06
2019-06-15T19:25:16.021Z,21.00
2019-06-15T19:28:30.875Z,20.87
2019-06-15T19:31:46.863Z,20.72
2019-06-15T19:35:03.140Z,20.56
2019-06-15T19:38:18.980Z,20.41
2019-06-15T19:41:34.362Z,20.27
2019-06-15T19:44:50.686Z,20.11
2019-06-15T19:48:07.038Z,19.94
2019-06-15T19:51:22.492Z,19.79
2019-06-15T19:54:37.852Z,19.62
2019-06-15T19:57:56.722Z,19.48
2019-06-15T20:01:11.209Z,19.36
2019-06-15T20:04:27.073Z,19.28
2019-06-15T20:07:42.533Z,19.17
2019-06-15T20:10:57.654Z,19.05
2019-06-15T20:14:12.898Z,18.95
2019-06-15T20:17:28.136Z,18.87
2019-06-15T20:20:46.899Z,18.76
2019-06-15T20:24:01.896Z,18.64
2019-06-15T20:27:17.702Z,18.54
2019-06-15T20:30:33.889Z,18.42
2019-06-15T20:33:52.342Z,18.30
2019-06-15T20:37:08.230Z,18.19
2019-06-15T20:40:23.886Z,18.05
2019-06-15T20:43:39.772Z,17.94
2019-06-15T20:46:57.084Z,17.90
2019-06-15T20:50:27.341Z,17.86
2019-06-15T20:53:29.359Z,17.84
2019-06-15T20:56:46.203Z,17.75
2019-06-15T21:00:02.717Z,17.61
2019-06-15T21:03:18.320Z,17.54
2019-06-15T21:06:33.923Z,17.46
2019-06-15T21:09:50.097Z,17.37
2019-06-15T21:16:46.456Z,17.25
2019-06-15T21:20:02.073Z,17.06
2019-06-15T21:23:18.241Z,16.95
2019-06-15T21:26:33.677Z,16.92
2019-06-15T21:29:49.991Z,16.89
2019-06-15T21:33:07.050Z,16.85
2019-06-15T21:36:22.871Z,16.80
2019-06-15T21:39:38.232Z,16.76
2019-06-15T21:42:56.269Z,16.71
2019-06-15T21:46:11.983Z,16.68
2019-06-15T21:49:27.340Z,16.66
2019-06-15T21:52:42.606Z,16.62
2019-06-15T21:55:57.825Z,16.56
2019-06-15T21:59:13.184Z,16.55
2019-06-15T22:02:29.119Z,16.55
2019-06-15T22:05:47.315Z,16.50
2019-06-15T22:09:01.190Z,16.48
2019-06-15T22:12:16.915Z,16.40
2019-06-15T22:15:32.277Z,16.36
2019-06-15T22:18:47.786Z,16.37
2019-06-15T22:22:03.089Z,16.39
2019-06-15T22:25:18.473Z,16.35
2019-06-15T22:28:36.199Z,16.36
2019-06-15T22:31:51.015Z,16.34
2019-06-15T22:35:07.216Z,16.30
2019-06-15T22:38:24.094Z,16.26
2019-06-15T22:41:39.336Z,16.25
2019-06-15T22:44:56.809Z,16.23
2019-06-15T22:48:12.240Z,16.19
2019-06-15T22:51:27.779Z,16.20
2019-06-15T22:54:43.420Z,16.19
2019-06-15T22:58:01.301Z,16.20
2019-06-15T23:01:17.100Z,16.15
2019-06-15T23:04:32.288Z,16.12
2019-06-15T23:07:48.491Z,16.15
2019-06-15T23:11:03.739Z,16.18
2019-06-15T23:14:20.054Z,16.23
2019-06-15T23:17:37.126Z,16.26
2019-06-15T23:20:53.193Z,16.30
2019-06-15T23:24:08.657Z,16.31
2019-06-15T23:27:25.314Z,16.35
2019-06-15T23:30:40.579Z,16.37
2019-06-15T23:33:56.241Z,16.38
2019-06-15T23:37:15.747Z,16.39
2019-06-15T23:40:30.768Z,16.43
2019-06-15T23:43:46.501Z,16.45
2019-06-15T23:47:02.109Z,16.51
2019-06-15T23:50:17.766Z,16.59
2019-06-15T23:53:33.134Z,16.66
2019-06-15T23:56:48.152Z,16.78
